Buoy 33880

sailwx.info

Track history (hours):
 
Tides and Currents Weather Stations Pressure Air Temp Water Temp Dewpoint Dewpoint Depression Visibility Wind Speed Wind Dir Waves Ship Positions

Drifting buoy 33880

Last reported at 2016-Dec-09 23:00 UTC. Time now 2016-Dec-10 01:17 UTC.
Position S 41°49' W 043°30'.

Date/timePositionNaut miles runAvg speedWind from/ knotsBaromVisibWave heightAir tempDewpointWater temp
2016-Dec-09 23:00S 41°49' W 043°30'2 1.2
2016-Dec-09 21:00S 41°51' W 043°30'0 0.2
2016-Dec-09 19:00S 41°51' W 043°29'1 1.1
2016-Dec-09 18:00S 41°52' W 043°31'3 2.6
2016-Dec-09 17:00S 41°54' W 043°29'3 0.6
2016-Dec-09 12:00S 41°57' W 043°28'1 0.7
2016-Dec-09 11:00S 41°58' W 043°29'3 3.1
2016-Dec-09 10:00S 42°01' W 043°28'0 0.4
2016-Dec-09 09:00S 42°01' W 043°28'5 1.8
2016-Dec-09 06:00S 42°06' W 043°29'0 0.0
2016-Dec-09 05:00S 42°06' W 043°29'3 3.0
2016-Dec-09 04:00S 42°09' W 043°29'0 0.0
2016-Dec-09 02:00S 42°09' W 043°29'1 0.6
2016-Dec-09 01:00S 42°10' W 043°29'1 1.3
2016-Dec-09 00:00S 42°11' W 043°30'2 2.4
2016-Dec-08 23:00S 42°13' W 043°31'0 0.0
2016-Dec-08 22:00S 42°13' W 043°31'0 0.4
2016-Dec-08 21:00S 42°13' W 043°30'2 2.4
2016-Dec-08 20:00S 42°16' W 043°30'2 2.0
2016-Dec-08 19:00S 42°17' W 043°31'0 0.0
2016-Dec-08 18:00S 42°17' W 043°31'5 4.7
2016-Dec-08 17:00S 42°22' W 043°34'0 0.0
2016-Dec-08 13:00S 42°22' W 043°34'1 0.7
2016-Dec-08 12:00S 42°22' W 043°35'1 1.3
2016-Dec-08 11:00S 42°23' W 043°35'1 0.4
2016-Dec-08 09:00S 42°23' W 043°37'0 0.4
2016-Dec-08 08:00S 42°23' W 043°37'1 1.1
2016-Dec-08 07:00S 42°24' W 043°38'0 0.0
2016-Dec-08 06:00S 42°24' W 043°38'1 0.4
2016-Dec-08 04:00S 42°25' W 043°39'1 1.5
2016-Dec-08 03:00S 42°26' W 043°40'0 0.0
2016-Dec-08 02:00S 42°26' W 043°40'1 1.5
2016-Dec-08 01:00S 42°27' W 043°41'0 0.4
2016-Dec-08 00:00S 42°27' W 043°42'2 2.2
2016-Dec-07 23:00S 42°29' W 043°44'0 0.0
2016-Dec-07 22:00S 42°29' W 043°44'1 1.1
2016-Dec-07 21:00S 42°29' W 043°45'1 0.6
2016-Dec-07 20:00S 42°30' W 043°45'3 2.5
2016-Dec-07 19:00S 42°31' W 043°48'0 0.0
2016-Dec-07 18:00S 42°31' W 043°48'4 4.5
2016-Dec-07 17:00S 42°32' W 043°54'0 0.0
2016-Dec-07 13:00S 42°32' W 043°54'3 1.5
2016-Dec-07 11:00S 42°31' W 043°58'1 0.9
2016-Dec-07 10:00S 42°31' W 043°59'1 1.5
2016-Dec-07 09:00S 42°29' W 044°00'0 0.0
2016-Dec-07 08:00S 42°29' W 044°00'8 0.9
2016-Dec-06 23:00S 42°25' W 044°08'0 0.4
2016-Dec-06 22:00S 42°25' W 044°09'2 2.0
2016-Dec-06 21:00S 42°23' W 044°10'1 0.6
2016-Dec-06 19:00S 42°22' W 044°11'7 7.2
2016-Dec-06 18:00S 42°16' W 044°16'1 0.1
2016-Dec-06 12:00S 42°15' W 044°17'1 0.7
2016-Dec-06 11:00S 42°14' W 044°17'1 1.5
2016-Dec-06 10:00S 42°13' W 044°19'0 0.0
2016-Dec-06 09:00S 42°13' W 044°19'4 4.2
2016-Dec-06 08:00S 42°10' W 044°22'1 0.4
2016-Dec-06 04:00S 42°08' W 044°23'2 1.0
2016-Dec-06 02:00S 42°07' W 044°24'0 0.0
2016-Dec-06 01:00S 42°07' W 044°24'1 0.6
2016-Dec-06 00:00S 42°06' W 044°24'2 0.9
2016-Dec-05 22:00S 42°05' W 044°26'1 0.6
2016-Dec-05 21:00S 42°05' W 044°26'1 1.1
2016-Dec-05 20:00S 42°04' W 044°28'1 0.6
2016-Dec-05 19:00S 42°04' W 044°28'6 6.4
2016-Dec-05 18:00S 42°00' W 044°35'5 4.7
2016-Dec-05 17:00S 42°03' W 044°30'5 1.2
2016-Dec-05 13:00S 42°00' W 044°35'1 1.5
2016-Dec-05 12:00S 41°59' W 044°37'1 1.3
2016-Dec-05 11:00S 41°58' W 044°37'1 0.7
2016-Dec-05 10:00S 41°58' W 044°38'1 0.7
2016-Dec-05 09:00S 41°57' W 044°38'1 0.7
2016-Dec-05 08:00S 41°56' W 044°39'3 2.5
2016-Dec-05 07:00S 41°55' W 044°41'0 0.4
2016-Dec-05 06:00S 41°55' W 044°41'2 1.9
2016-Dec-05 05:00S 41°54' W 044°43'0 0.0
2016-Dec-05 04:00S 41°54' W 044°43'2 1.9
2016-Dec-05 03:00S 41°53' W 044°46'2 1.8
2016-Dec-05 02:00S 41°52' W 044°47'0 0.0
2016-Dec-05 01:00S 41°52' W 044°47'1 0.7
2016-Dec-05 00:00S 41°53' W 044°48'3 2.9
2016-Dec-04 23:00S 41°51' W 044°51'1 1.2
2016-Dec-04 22:00S 41°50' W 044°51'1 0.7
2016-Dec-04 21:00S 41°49' W 044°52'0 0.4
2016-Dec-04 20:00S 41°49' W 044°52'7 3.7
2016-Dec-04 18:00S 41°43' W 044°58'0 0.0
2016-Dec-04 17:00S 41°43' W 044°58'0 0.0
2016-Dec-04 16:00S 41°43' W 044°58'0 0.0
2016-Dec-04 12:00S 41°43' W 044°58'1 1.5
2016-Dec-04 11:00S 41°42' W 044°59'1 0.6
2016-Dec-04 10:00S 41°41' W 044°59'1 0.7
2016-Dec-04 09:00S 41°41' W 045°00'1 0.5
2016-Dec-04 06:00S 41°40' W 045°01'1 0.4
2016-Dec-04 04:00S 41°39' W 045°02'1 0.7
2016-Dec-04 03:00S 41°38' W 045°02'0 0.0
2016-Dec-04 02:00S 41°38' W 045°02'2 2.0
2016-Dec-04 01:00S 41°37' W 045°04'1 0.4
2016-Dec-03 23:00S 41°36' W 045°04'0 0.4
2016-Dec-03 22:00S 41°36' W 045°05'1 1.3
2016-Dec-03 21:00S 41°35' W 045°04'1 0.3
2016-Dec-03 19:00S 41°34' W 045°04'1 0.7
2016-Dec-03 18:00S 41°34' W 045°04'0 0.0
2016-Dec-03 17:00S 41°34' W 045°04'1 1.5
2016-Dec-03 16:00S 41°32' W 045°05'0 0.0
2016-Dec-03 12:00S 41°32' W 045°05'1 0.7
2016-Dec-03 11:00S 41°33' W 045°05'1 0.6
2016-Dec-03 09:00S 41°32' W 045°05'2 0.5
2016-Dec-03 05:00S 41°30' W 045°06'1 0.2
2016-Dec-03 02:00S 41°29' W 045°05'1 0.7
2016-Dec-03 01:00S 41°30' W 045°06'0 0.4
2016-Dec-03 00:00S 41°30' W 045°07'1 0.2
2016-Dec-02 21:00S 41°29' W 045°07'1 1.5
2016-Dec-02 20:00S 41°28' W 045°08'0 0.4
2016-Dec-02 19:00S 41°28' W 045°09'1 1.3
2016-Dec-02 18:00S 41°27' W 045°10'0 0.0
2016-Dec-02 17:00S 41°27' W 045°10'0 0.0
2016-Dec-02 16:00S 41°27' W 045°10'2 0.6
2016-Dec-02 13:00S 41°25' W 045°10'0 0.2
2016-Dec-02 11:00S 41°25' W 045°09'0 0.4
2016-Dec-02 10:00S 41°25' W 045°10'0 0.0
2016-Dec-02 09:00S 41°25' W 045°10'1 0.3
2016-Dec-02 06:00S 41°25' W 045°11'1 1.1
2016-Dec-02 05:00S 41°25' W 045°12'1 0.4
2016-Dec-02 02:00S 41°24' W 045°13'1 0.6
2016-Dec-02 01:00S 41°23' W 045°13'1 1.2
2016-Dec-02 00:00S 41°22' W 045°13'0 0.0
2016-Dec-01 23:00S 41°22' W 045°13'1 0.7
2016-Dec-01 21:00S 41°22' W 045°11'0 0.0
2016-Dec-01 20:00S 41°22' W 045°11'0 0.5
2016-Dec-01 19:00S 41°22' W 045°11'1 0.8
2016-Dec-01 18:00S 41°22' W 045°10'2 1.9
2016-Dec-01 17:00S 41°24' W 045°10'1 0.2
2016-Dec-01 13:00S 41°25' W 045°09'0 0.0
2016-Dec-01 12:00S 41°25' W 045°09'0 0.0
2016-Dec-01 11:00S 41°25' W 045°09'1 1.1
2016-Dec-01 10:00S 41°25' W 045°10'0 0.0
2016-Dec-01 08:00S 41°25' W 045°10'1 0.3
2016-Dec-01 06:00S 41°25' W 045°10'2 1.9
2016-Dec-01 05:00S 41°25' W 045°08'0 0.0
2016-Dec-01 04:00S 41°25' W 045°08'0 0.0
2016-Dec-01 02:00S 41°25' W 045°08'1 1.3
2016-Dec-01 01:00S 41°26' W 045°07'1 1.2
2016-Dec-01 00:00S 41°28' W 045°07'0 0.4
2016-Nov-30 23:00S 41°28' W 045°08'1 1.5
2016-Nov-30 22:00S 41°28' W 045°10'1 0.6
2016-Nov-30 21:00S 41°29' W 045°10'0 0.4
2016-Nov-30 20:00S 41°29' W 045°09'1 1.3
2016-Nov-30 19:00S 41°29' W 045°11'0 0.0
2016-Nov-30 18:00S 41°29' W 045°11'2 2.2
2016-Nov-30 17:00S 41°29' W 045°08'0 0.0
2016-Nov-30 13:00S 41°29' W 045°08'1 1.5
2016-Nov-30 12:00S 41°29' W 045°06'2 0.9
2016-Nov-30 10:00S 41°31' W 045°04'2 2.2
2016-Nov-30 09:00S 41°32' W 045°02'2 1.9
2016-Nov-30 08:00S 41°34' W 045°02'1 0.6
2016-Nov-30 07:00S 41°35' W 045°02'2 2.4
2016-Nov-30 06:00S 41°37' W 045°02'0 0.0
2016-Nov-30 05:00S 41°37' W 045°02'3 2.6
2016-Nov-30 04:00S 41°40' W 045°04'0 0.0
2016-Nov-30 03:00S 41°40' W 045°04'0 0.0
2016-Nov-30 02:00S 41°40' W 045°04'0 0.0
2016-Nov-30 01:00S 41°40' W 045°04'1 0.6
2016-Nov-30 00:00S 41°40' W 045°04'0 0.0
2016-Nov-29 23:00S 41°40' W 045°04'  
Track history (hours):
 
Tides and Currents Weather Stations Pressure Air Temp Water Temp Dewpoint Dewpoint Depression Visibility Wind Speed Wind Dir Waves Ship Positions

Drifting buoy 33880

Last reported at 2016-Dec-09 23:00 UTC. Time now 2016-Dec-10 01:17 UTC.
Position S 41°49' W 043°30'.

Date/timePositionNaut miles runAvg speedWind from/ knotsBaromVisibWave heightAir tempDewpointWater temp
2016-Dec-09 23:00S 41°49' W 043°30'2 1.2
2016-Dec-09 21:00S 41°51' W 043°30'0 0.2
2016-Dec-09 19:00S 41°51' W 043°29'1 1.1
2016-Dec-09 18:00S 41°52' W 043°31'3 2.6
2016-Dec-09 17:00S 41°54' W 043°29'3 0.6
2016-Dec-09 12:00S 41°57' W 043°28'1 0.7
2016-Dec-09 11:00S 41°58' W 043°29'3 3.1
2016-Dec-09 10:00S 42°01' W 043°28'0 0.4
2016-Dec-09 09:00S 42°01' W 043°28'5 1.8
2016-Dec-09 06:00S 42°06' W 043°29'0 0.0
2016-Dec-09 05:00S 42°06' W 043°29'3 3.0
2016-Dec-09 04:00S 42°09' W 043°29'0 0.0
2016-Dec-09 02:00S 42°09' W 043°29'1 0.6
2016-Dec-09 01:00S 42°10' W 043°29'1 1.3
2016-Dec-09 00:00S 42°11' W 043°30'2 2.4
2016-Dec-08 23:00S 42°13' W 043°31'0 0.0
2016-Dec-08 22:00S 42°13' W 043°31'0 0.4
2016-Dec-08 21:00S 42°13' W 043°30'2 2.4
2016-Dec-08 20:00S 42°16' W 043°30'2 2.0
2016-Dec-08 19:00S 42°17' W 043°31'0 0.0
2016-Dec-08 18:00S 42°17' W 043°31'5 4.7
2016-Dec-08 17:00S 42°22' W 043°34'0 0.0
2016-Dec-08 13:00S 42°22' W 043°34'1 0.7
2016-Dec-08 12:00S 42°22' W 043°35'1 1.3
2016-Dec-08 11:00S 42°23' W 043°35'1 0.4
2016-Dec-08 09:00S 42°23' W 043°37'0 0.4
2016-Dec-08 08:00S 42°23' W 043°37'1 1.1
2016-Dec-08 07:00S 42°24' W 043°38'0 0.0
2016-Dec-08 06:00S 42°24' W 043°38'1 0.4
2016-Dec-08 04:00S 42°25' W 043°39'1 1.5
2016-Dec-08 03:00S 42°26' W 043°40'0 0.0
2016-Dec-08 02:00S 42°26' W 043°40'1 1.5
2016-Dec-08 01:00S 42°27' W 043°41'0 0.4
2016-Dec-08 00:00S 42°27' W 043°42'2 2.2
2016-Dec-07 23:00S 42°29' W 043°44'0 0.0
2016-Dec-07 22:00S 42°29' W 043°44'1 1.1
2016-Dec-07 21:00S 42°29' W 043°45'1 0.6
2016-Dec-07 20:00S 42°30' W 043°45'3 2.5
2016-Dec-07 19:00S 42°31' W 043°48'0 0.0
2016-Dec-07 18:00S 42°31' W 043°48'4 4.5
2016-Dec-07 17:00S 42°32' W 043°54'0 0.0
2016-Dec-07 13:00S 42°32' W 043°54'3 1.5
2016-Dec-07 11:00S 42°31' W 043°58'1 0.9
2016-Dec-07 10:00S 42°31' W 043°59'1 1.5
2016-Dec-07 09:00S 42°29' W 044°00'0 0.0
2016-Dec-07 08:00S 42°29' W 044°00'8 0.9
2016-Dec-06 23:00S 42°25' W 044°08'0 0.4
2016-Dec-06 22:00S 42°25' W 044°09'2 2.0
2016-Dec-06 21:00S 42°23' W 044°10'1 0.6
2016-Dec-06 19:00S 42°22' W 044°11'7 7.2
2016-Dec-06 18:00S 42°16' W 044°16'1 0.1
2016-Dec-06 12:00S 42°15' W 044°17'1 0.7
2016-Dec-06 11:00S 42°14' W 044°17'1 1.5
2016-Dec-06 10:00S 42°13' W 044°19'0 0.0
2016-Dec-06 09:00S 42°13' W 044°19'4 4.2
2016-Dec-06 08:00S 42°10' W 044°22'1 0.4
2016-Dec-06 04:00S 42°08' W 044°23'2 1.0
2016-Dec-06 02:00S 42°07' W 044°24'0 0.0
2016-Dec-06 01:00S 42°07' W 044°24'1 0.6
2016-Dec-06 00:00S 42°06' W 044°24'2 0.9
2016-Dec-05 22:00S 42°05' W 044°26'1 0.6
2016-Dec-05 21:00S 42°05' W 044°26'1 1.1
2016-Dec-05 20:00S 42°04' W 044°28'1 0.6
2016-Dec-05 19:00S 42°04' W 044°28'6 6.4
2016-Dec-05 18:00S 42°00' W 044°35'5 4.7
2016-Dec-05 17:00S 42°03' W 044°30'5 1.2
2016-Dec-05 13:00S 42°00' W 044°35'1 1.5
2016-Dec-05 12:00S 41°59' W 044°37'1 1.3
2016-Dec-05 11:00S 41°58' W 044°37'1 0.7
2016-Dec-05 10:00S 41°58' W 044°38'1 0.7
2016-Dec-05 09:00S 41°57' W 044°38'1 0.7
2016-Dec-05 08:00S 41°56' W 044°39'3 2.5
2016-Dec-05 07:00S 41°55' W 044°41'0 0.4
2016-Dec-05 06:00S 41°55' W 044°41'2 1.9
2016-Dec-05 05:00S 41°54' W 044°43'0 0.0
2016-Dec-05 04:00S 41°54' W 044°43'2 1.9
2016-Dec-05 03:00S 41°53' W 044°46'2 1.8
2016-Dec-05 02:00S 41°52' W 044°47'0 0.0
2016-Dec-05 01:00S 41°52' W 044°47'1 0.7
2016-Dec-05 00:00S 41°53' W 044°48'3 2.9
2016-Dec-04 23:00S 41°51' W 044°51'1 1.2
2016-Dec-04 22:00S 41°50' W 044°51'1 0.7
2016-Dec-04 21:00S 41°49' W 044°52'0 0.4
2016-Dec-04 20:00S 41°49' W 044°52'7 3.7
2016-Dec-04 18:00S 41°43' W 044°58'0 0.0
2016-Dec-04 17:00S 41°43' W 044°58'0 0.0
2016-Dec-04 16:00S 41°43' W 044°58'0 0.0
2016-Dec-04 12:00S 41°43' W 044°58'1 1.5
2016-Dec-04 11:00S 41°42' W 044°59'1 0.6
2016-Dec-04 10:00S 41°41' W 044°59'1 0.7
2016-Dec-04 09:00S 41°41' W 045°00'1 0.5
2016-Dec-04 06:00S 41°40' W 045°01'1 0.4
2016-Dec-04 04:00S 41°39' W 045°02'1 0.7
2016-Dec-04 03:00S 41°38' W 045°02'0 0.0
2016-Dec-04 02:00S 41°38' W 045°02'2 2.0
2016-Dec-04 01:00S 41°37' W 045°04'1 0.4
2016-Dec-03 23:00S 41°36' W 045°04'0 0.4
2016-Dec-03 22:00S 41°36' W 045°05'1 1.3
2016-Dec-03 21:00S 41°35' W 045°04'1 0.3
2016-Dec-03 19:00S 41°34' W 045°04'1 0.7
2016-Dec-03 18:00S 41°34' W 045°04'0 0.0
2016-Dec-03 17:00S 41°34' W 045°04'1 1.5
2016-Dec-03 16:00S 41°32' W 045°05'0 0.0
2016-Dec-03 12:00S 41°32' W 045°05'1 0.7
2016-Dec-03 11:00S 41°33' W 045°05'1 0.6
2016-Dec-03 09:00S 41°32' W 045°05'2 0.5
2016-Dec-03 05:00S 41°30' W 045°06'1 0.2
2016-Dec-03 02:00S 41°29' W 045°05'1 0.7
2016-Dec-03 01:00S 41°30' W 045°06'0 0.4
2016-Dec-03 00:00S 41°30' W 045°07'1 0.2
2016-Dec-02 21:00S 41°29' W 045°07'1 1.5
2016-Dec-02 20:00S 41°28' W 045°08'0 0.4
2016-Dec-02 19:00S 41°28' W 045°09'1 1.3
2016-Dec-02 18:00S 41°27' W 045°10'0 0.0
2016-Dec-02 17:00S 41°27' W 045°10'0 0.0
2016-Dec-02 16:00S 41°27' W 045°10'2 0.6
2016-Dec-02 13:00S 41°25' W 045°10'0 0.2
2016-Dec-02 11:00S 41°25' W 045°09'0 0.4
2016-Dec-02 10:00S 41°25' W 045°10'0 0.0
2016-Dec-02 09:00S 41°25' W 045°10'1 0.3
2016-Dec-02 06:00S 41°25' W 045°11'1 1.1
2016-Dec-02 05:00S 41°25' W 045°12'1 0.4
2016-Dec-02 02:00S 41°24' W 045°13'1 0.6
2016-Dec-02 01:00S 41°23' W 045°13'1 1.2
2016-Dec-02 00:00S 41°22' W 045°13'0 0.0
2016-Dec-01 23:00S 41°22' W 045°13'1 0.7
2016-Dec-01 21:00S 41°22' W 045°11'0 0.0
2016-Dec-01 20:00S 41°22' W 045°11'0 0.5
2016-Dec-01 19:00S 41°22' W 045°11'1 0.8
2016-Dec-01 18:00S 41°22' W 045°10'2 1.9
2016-Dec-01 17:00S 41°24' W 045°10'1 0.2
2016-Dec-01 13:00S 41°25' W 045°09'0 0.0
2016-Dec-01 12:00S 41°25' W 045°09'0 0.0
2016-Dec-01 11:00S 41°25' W 045°09'1 1.1
2016-Dec-01 10:00S 41°25' W 045°10'0 0.0
2016-Dec-01 08:00S 41°25' W 045°10'1 0.3
2016-Dec-01 06:00S 41°25' W 045°10'2 1.9
2016-Dec-01 05:00S 41°25' W 045°08'0 0.0
2016-Dec-01 04:00S 41°25' W 045°08'0 0.0
2016-Dec-01 02:00S 41°25' W 045°08'1 1.3
2016-Dec-01 01:00S 41°26' W 045°07'1 1.2
2016-Dec-01 00:00S 41°28' W 045°07'0 0.4
2016-Nov-30 23:00S 41°28' W 045°08'1 1.5
2016-Nov-30 22:00S 41°28' W 045°10'1 0.6
2016-Nov-30 21:00S 41°29' W 045°10'0 0.4
2016-Nov-30 20:00S 41°29' W 045°09'1 1.3
2016-Nov-30 19:00S 41°29' W 045°11'0 0.0
2016-Nov-30 18:00S 41°29' W 045°11'2 2.2
2016-Nov-30 17:00S 41°29' W 045°08'0 0.0
2016-Nov-30 13:00S 41°29' W 045°08'1 1.5
2016-Nov-30 12:00S 41°29' W 045°06'2 0.9
2016-Nov-30 10:00S 41°31' W 045°04'2 2.2
2016-Nov-30 09:00S 41°32' W 045°02'2 1.9
2016-Nov-30 08:00S 41°34' W 045°02'1 0.6
2016-Nov-30 07:00S 41°35' W 045°02'2 2.4
2016-Nov-30 06:00S 41°37' W 045°02'0 0.0
2016-Nov-30 05:00S 41°37' W 045°02'3 2.6
2016-Nov-30 04:00S 41°40' W 045°04'0 0.0
2016-Nov-30 03:00S 41°40' W 045°04'0 0.0
2016-Nov-30 02:00S 41°40' W 045°04'0 0.0
2016-Nov-30 01:00S 41°40' W 045°04'1 0.6
2016-Nov-30 00:00S 41°40' W 045°04'0 0.0
2016-Nov-29 23:00S 41°40' W 045°04'  

Dump ship's entire track history